Time;durP1;ratioP1;P1;durP2;ratioP2;P2;SDS_P1;SDS_P2;PMS_P1;PMS_P2;Temp;Humidity;BMP_temperature;BMP_pressure;BME280_temperature;BME280_humidity;BME280_pressure;Samples;Min_cycle;Max_cycle;Signal;HPM_P1;HPM_P2
2023/09/12 00:02:06;;;;;;;1.25;1.15;;;17.80;99.90;;;;;;5073088;28;20683;-72
2023/09/12 00:04:31;;;;;;;1.35;1.23;;;17.80;99.90;;;;;;5072359;28;20213;-73
2023/09/12 00:06:57;;;;;;;4.05;1.70;;;17.80;99.90;;;;;;5072806;28;20278;-71
2023/09/12 00:09:23;;;;;;;0.65;0.65;;;17.80;99.90;;;;;;5072793;28;20230;-70
2023/09/12 00:11:48;;;;;;;1.15;1.05;;;17.80;99.90;;;;;;5072776;28;20197;-71
2023/09/12 00:14:18;;;;;;;1.20;0.88;;;17.80;99.90;;;;;;5072731;28;20188;-70
2023/09/12 00:16:44;;;;;;;1.95;1.52;;;17.80;99.90;;;;;;5072730;28;20744;-71
2023/09/12 00:19:10;;;;;;;2.38;1.10;;;17.80;99.90;;;;;;5072712;28;20263;-71
2023/09/12 00:21:35;;;;;;;1.27;1.17;;;17.80;99.90;;;;;;5072647;28;20307;-72
2023/09/12 00:24:01;;;;;;;1.75;1.55;;;17.80;99.90;;;;;;5072622;28;20231;-72
2023/09/12 00:26:27;;;;;;;3.22;1.80;;;17.80;99.90;;;;;;5072403;28;20612;-71
2023/09/12 00:28:52;;;;;;;1.33;1.17;;;17.80;99.90;;;;;;5072509;28;20193;-72
2023/09/12 00:31:18;;;;;;;0.70;0.70;;;17.80;99.90;;;;;;5072376;28;20193;-72
2023/09/12 00:33:44;;;;;;;1.42;1.33;;;17.80;99.90;;;;;;5072586;28;20192;-73
2023/09/12 00:36:09;;;;;;;0.98;0.95;;;17.80;99.90;;;;;;5072354;28;20189;-72
2023/09/12 00:38:38;;;;;;;0.75;0.73;;;17.70;99.90;;;;;;5054546;28;20197;-72
2023/09/12 00:41:03;;;;;;;0.70;0.70;;;17.80;99.90;;;;;;5072436;28;20763;-72
2023/09/12 00:43:29;;;;;;;1.85;1.13;;;17.80;99.90;;;;;;5072333;28;20212;-73
2023/09/12 00:45:55;;;;;;;0.47;0.47;;;17.70;99.90;;;;;;5072302;28;20188;-72
2023/09/12 00:48:23;;;;;;;0.98;0.80;;;17.70;99.90;;;;;;5072188;28;20193;-72
2023/09/12 00:50:49;;;;;;;3.33;1.75;;;17.70;99.90;;;;;;5072269;28;20200;-72
2023/09/12 00:53:15;;;;;;;1.25;0.95;;;17.70;99.90;;;;;;5072358;28;20220;-72
2023/09/12 00:55:49;;;;;;;1.85;1.20;;;17.70;99.90;;;;;;5053753;28;20325;-72
2023/09/12 00:58:18;;;;;;;1.23;1.13;;;17.70;99.90;;;;;;5072209;28;20250;-72
2023/09/12 01:00:43;;;;;;;1.35;1.05;;;17.60;99.90;;;;;;5071966;28;20196;-72
2023/09/12 01:03:09;;;;;;;1.33;1.23;;;17.70;99.90;;;;;;5053856;28;20553;-72
2023/09/12 01:05:35;;;;;;;1.00;0.77;;;17.60;99.90;;;;;;5071371;28;20228;-72
2023/09/12 01:08:01;;;;;;;0.88;0.88;;;17.60;99.90;;;;;;5072186;28;20189;-72
2023/09/12 01:10:27;;;;;;;2.20;1.05;;;17.60;99.90;;;;;;5071638;28;20204;-73
2023/09/12 01:12:53;;;;;;;0.75;0.70;;;17.60;99.90;;;;;;5071807;28;20228;-72
2023/09/12 01:15:19;;;;;;;0.60;0.60;;;17.60;99.90;;;;;;5072188;28;20617;-73
2023/09/12 01:17:45;;;;;;;4.40;1.73;;;17.60;99.90;;;;;;5076174;28;20192;-73
2023/09/12 01:20:22;;;;;;;0.82;0.82;;;17.60;99.90;;;;;;5076201;28;20189;-72
2023/09/12 01:23:11;;;;;;;1.98;1.42;;;17.70;99.90;;;;;;5076319;28;20686;-75
2023/09/12 01:25:57;;;;;;;1.40;0.98;;;17.70;99.90;;;;;;5064770;28;20236;-75
2023/09/12 01:28:25;;;;;;;1.00;0.82;;;17.70;99.90;;;;;;5075401;28;20192;-75
2023/09/12 01:30:51;;;;;;;1.10;1.00;;;17.70;99.90;;;;;;5076116;28;20188;-75
2023/09/12 01:33:17;;;;;;;2.13;1.35;;;17.70;99.90;;;;;;5075897;28;20679;-71
2023/09/12 01:35:43;;;;;;;2.85;1.30;;;17.70;99.90;;;;;;5075751;28;20564;-70
2023/09/12 01:38:09;;;;;;;3.47;2.55;;;17.70;99.90;;;;;;5075714;28;20200;-71
2023/09/12 01:40:43;;;;;;;2.90;0.85;;;17.70;99.90;;;;;;5075667;28;20204;-71
2023/09/12 01:43:09;;;;;;;0.80;0.80;;;17.70;99.90;;;;;;5075718;28;20192;-72
2023/09/12 01:45:36;;;;;;;1.38;1.23;;;17.70;99.90;;;;;;5075497;28;20200;-70
2023/09/12 01:48:05;;;;;;;1.45;1.35;;;17.70;99.90;;;;;;5075485;28;20246;-72
2023/09/12 01:50:31;;;;;;;0.80;0.80;;;17.70;99.90;;;;;;5075289;28;20196;-71
2023/09/12 01:52:57;;;;;;;3.15;1.27;;;17.70;99.90;;;;;;5075373;28;20205;-71
2023/09/12 01:55:23;;;;;;;2.75;1.65;;;17.70;99.90;;;;;;5075467;28;20655;-71
2023/09/12 01:57:49;;;;;;;1.10;1.00;;;17.70;99.90;;;;;;5075411;28;20196;-71
2023/09/12 02:00:18;;;;;;;2.90;1.10;;;17.70;99.90;;;;;;5075296;28;20196;-70
2023/09/12 02:02:44;;;;;;;1.00;1.00;;;17.70;99.90;;;;;;5057278;28;20291;-70
2023/09/12 02:05:17;;;;;;;1.02;0.98;;;17.70;99.90;;;;;;5075079;28;20304;-70
2023/09/12 02:07:43;;;;;;;1.15;1.05;;;17.70;99.90;;;;;;5057424;28;20193;-70
2023/09/12 02:10:09;;;;;;;0.82;0.82;;;17.70;99.90;;;;;;5074867;28;20288;-71
2023/09/12 02:12:35;;;;;;;1.52;1.00;;;17.80;99.90;;;;;;5074973;28;20188;-70
2023/09/12 02:15:01;;;;;;;2.75;1.98;;;17.80;99.90;;;;;;5075289;28;20255;-71
2023/09/12 02:17:26;;;;;;;0.82;0.82;;;17.80;99.90;;;;;;5074969;28;20242;-70
2023/09/12 02:19:52;;;;;;;1.33;1.23;;;17.90;99.90;;;;;;5075139;28;20192;-71
2023/09/12 02:22:18;;;;;;;4.28;1.17;;;17.90;99.90;;;;;;5057014;28;20634;-70
2023/09/12 02:24:43;;;;;;;1.58;1.48;;;17.90;99.90;;;;;;5074997;28;20220;-70
2023/09/12 02:27:09;;;;;;;1.63;1.38;;;17.90;99.90;;;;;;5074072;28;20192;-70
2023/09/12 02:29:35;;;;;;;2.30;2.03;;;17.90;99.90;;;;;;5056574;28;20193;-72
2023/09/12 02:32:00;;;;;;;1.63;1.35;;;17.90;99.90;;;;;;5074942;28;20189;-71
2023/09/12 02:34:26;;;;;;;1.58;1.48;;;17.90;99.90;;;;;;5074711;28;20216;-70
2023/09/12 02:36:52;;;;;;;4.80;2.08;;;17.90;99.90;;;;;;5074835;28;20204;-70
2023/09/12 02:39:18;;;;;;;1.83;1.30;;;17.90;99.90;;;;;;5074721;28;20185;-70
2023/09/12 02:41:44;;;;;;;1.27;1.05;;;17.90;99.90;;;;;;5074635;28;20211;-70
2023/09/12 02:44:09;;;;;;;1.40;1.20;;;17.90;99.90;;;;;;5074529;28;20264;-70
2023/09/12 02:46:36;;;;;;;1.40;1.30;;;17.90;99.90;;;;;;5074323;28;20385;-70
2023/09/12 02:49:02;;;;;;;1.27;0.95;;;17.90;99.90;;;;;;5074184;28;20204;-71
2023/09/12 02:51:28;;;;;;;1.40;1.23;;;18.00;99.90;;;;;;5074358;28;20346;-70
2023/09/12 02:53:54;;;;;;;5.80;1.55;;;17.90;99.90;;;;;;5074552;28;20275;-70
2023/09/12 02:56:20;;;;;;;2.88;1.55;;;18.00;99.90;;;;;;5061436;28;20225;-70
2023/09/12 02:58:49;;;;;;;1.40;1.02;;;17.90;99.90;;;;;;5054397;28;20202;-70
2023/09/12 03:01:19;;;;;;;13.60;2.17;;;18.00;99.90;;;;;;5054992;28;20201;-70
2023/09/12 03:03:51;;;;;;;4.00;2.00;;;17.90;99.90;;;;;;5073720;28;20621;-71
2023/09/12 03:06:18;;;;;;;1.33;1.23;;;17.90;99.90;;;;;;5074075;28;20196;-70
2023/09/12 03:08:44;;;;;;;1.95;1.80;;;18.00;99.90;;;;;;5074112;28;20208;-70
2023/09/12 03:11:10;;;;;;;0.93;0.93;;;17.90;99.90;;;;;;5073914;28;20266;-71
2023/09/12 03:13:40;;;;;;;2.22;1.77;;;17.90;99.90;;;;;;5074006;28;20196;-70
2023/09/12 03:16:13;;;;;;;2.28;1.38;;;17.90;99.90;;;;;;5073958;28;20216;-70
2023/09/12 03:18:39;;;;;;;0.93;0.80;;;17.90;99.90;;;;;;5073885;28;20197;-70
2023/09/12 03:21:05;;;;;;;2.08;1.55;;;17.90;99.90;;;;;;5073780;28;20219;-70
2023/09/12 03:23:31;;;;;;;1.60;1.38;;;17.90;99.90;;;;;;5073747;28;20223;-70
2023/09/12 03:26:04;;;;;;;1.42;1.33;;;17.90;99.90;;;;;;5073758;28;20188;-70
2023/09/12 03:28:30;;;;;;;0.93;0.93;;;17.90;99.90;;;;;;5055627;28;20731;-70
2023/09/12 03:31:14;;;;;;;1.00;1.00;;;17.90;99.90;;;;;;5073727;28;20201;-71
2023/09/12 03:33:41;;;;;;;1.52;1.38;;;17.90;99.90;;;;;;5073625;28;20199;-70
2023/09/12 03:36:08;;;;;;;1.33;1.05;;;17.90;99.90;;;;;;5073519;28;20276;-70
2023/09/12 03:38:34;;;;;;;1.48;1.25;;;17.90;99.90;;;;;;5073512;28;20192;-70
2023/09/12 03:41:01;;;;;;;1.00;0.80;;;17.90;99.90;;;;;;5073503;28;20571;-70
2023/09/12 03:43:26;;;;;;;0.85;0.85;;;17.80;99.90;;;;;;5072955;28;20288;-69
2023/09/12 03:45:53;;;;;;;1.30;1.20;;;17.80;99.90;;;;;;5073412;28;20242;-72
2023/09/12 03:48:19;;;;;;;0.60;0.60;;;17.80;99.90;;;;;;5055507;28;20193;-71
2023/09/12 03:50:45;;;;;;;18.13;1.83;;;17.80;99.90;;;;;;5055250;28;20251;-70
2023/09/12 03:53:13;;;;;;;1.50;1.13;;;17.80;99.90;;;;;;5073445;28;20621;-74
2023/09/12 03:55:39;;;;;;;2.58;1.30;;;17.80;99.90;;;;;;5073013;28;20618;-74
2023/09/12 03:58:04;;;;;;;2.55;1.77;;;17.80;99.90;;;;;;5073212;28;20203;-75
2023/09/12 04:00:30;;;;;;;0.70;0.70;;;17.80;99.90;;;;;;5072924;28;20189;-74
2023/09/12 04:02:56;;;;;;;1.15;1.02;;;17.80;99.90;;;;;;5072999;28;20205;-74
2023/09/12 04:05:22;;;;;;;1.65;1.55;;;17.80;99.90;;;;;;5072742;28;20696;-74
2023/09/12 04:07:48;;;;;;;0.80;0.80;;;17.80;99.90;;;;;;5055127;28;20193;-73
2023/09/12 04:10:13;;;;;;;1.38;1.27;;;17.80;99.90;;;;;;5072885;28;20217;-75
2023/09/12 04:12:39;;;;;;;1.13;1.02;;;17.80;99.90;;;;;;5055027;28;20201;-76
2023/09/12 04:15:06;;;;;;;1.13;0.90;;;17.80;99.90;;;;;;5072811;28;20196;-76
2023/09/12 04:17:31;;;;;;;1.27;1.17;;;17.80;99.90;;;;;;5072806;28;20192;-76
2023/09/12 04:19:57;;;;;;;19.58;1.90;;;17.80;99.90;;;;;;5072673;28;20189;-75
2023/09/12 04:22:23;;;;;;;0.93;0.93;;;17.80;99.90;;;;;;5073075;28;20215;-75
2023/09/12 04:24:48;;;;;;;1.02;0.98;;;17.80;99.90;;;;;;5072750;28;20192;-75
2023/09/12 04:27:14;;;;;;;1.50;1.40;;;17.80;99.90;;;;;;5054733;28;20247;-75
2023/09/12 04:29:39;;;;;;;4.47;1.25;;;17.80;99.90;;;;;;5072335;28;20582;-76
2023/09/12 04:32:05;;;;;;;4.30;2.35;;;17.70;99.90;;;;;;5072771;28;20192;-76
2023/09/12 04:34:31;;;;;;;0.70;0.70;;;17.80;99.90;;;;;;5072428;28;20208;-76
2023/09/12 04:36:57;;;;;;;4.55;1.83;;;17.80;99.90;;;;;;5072576;28;20277;-76
2023/09/12 04:39:23;;;;;;;15.18;1.95;;;17.80;99.90;;;;;;5072059;28;20246;-76
2023/09/12 04:41:52;;;;;;;0.98;0.88;;;17.80;99.90;;;;;;5072560;28;20572;-75
2023/09/12 04:44:17;;;;;;;0.90;0.90;;;17.80;99.90;;;;;;5072538;28;20648;-75
2023/09/12 04:46:43;;;;;;;2.47;1.95;;;17.80;99.90;;;;;;5072434;28;20275;-75
2023/09/12 04:49:09;;;;;;;1.35;1.25;;;17.80;99.90;;;;;;5072378;28;20276;-75
2023/09/12 04:51:37;;;;;;;1.88;1.48;;;17.80;99.90;;;;;;5071746;28;20197;-76
2023/09/12 04:54:02;;;;;;;1.55;1.10;;;17.80;99.90;;;;;;5072281;28;20197;-76
2023/09/12 04:56:28;;;;;;;2.35;1.67;;;17.80;99.90;;;;;;5072136;28;20603;-76
2023/09/12 04:58:54;;;;;;;1.67;1.48;;;17.80;99.90;;;;;;5072314;28;20193;-76
2023/09/12 05:01:19;;;;;;;1.67;1.48;;;17.80;99.90;;;;;;5072064;28;20330;-75
2023/09/12 05:03:45;;;;;;;0.57;0.57;;;17.90;99.90;;;;;;5072026;28;20665;-74
2023/09/12 05:06:13;;;;;;;1.10;1.00;;;17.90;99.90;;;;;;5072226;28;20660;-74
2023/09/12 05:08:38;;;;;;;9.88;1.67;;;17.90;99.90;;;;;;5072163;28;20303;-74
2023/09/12 05:11:04;;;;;;;1.77;1.67;;;17.90;99.90;;;;;;5072134;28;20224;-74
2023/09/12 05:13:30;;;;;;;1.27;1.17;;;17.90;99.90;;;;;;5072012;28;20196;-74
2023/09/12 05:15:56;;;;;;;1.50;1.40;;;17.90;99.90;;;;;;5053891;28;20240;-74
2023/09/12 05:18:22;;;;;;;1.48;1.38;;;18.00;99.90;;;;;;5072067;28;20242;-74
2023/09/12 05:20:49;;;;;;;4.22;1.45;;;18.00;99.90;;;;;;5053957;28;20201;-74
2023/09/12 05:23:15;;;;;;;2.13;1.92;;;18.00;99.90;;;;;;5071219;28;20204;-74
2023/09/12 05:25:43;;;;;;;12.60;2.08;;;18.00;99.90;;;;;;5053957;28;20220;-74
2023/09/12 05:28:09;;;;;;;2.25;1.95;;;18.10;99.90;;;;;;5071816;28;20216;-74
2023/09/12 05:30:35;;;;;;;5.07;1.73;;;18.10;99.90;;;;;;5071848;28;20220;-74
2023/09/12 05:33:02;;;;;;;1.15;1.10;;;18.10;99.90;;;;;;5071979;28;20197;-74
2023/09/12 05:35:27;;;;;;;6.68;2.75;;;18.10;99.90;;;;;;5071763;28;20197;-74
2023/09/12 05:37:53;;;;;;;4.30;1.48;;;18.10;99.90;;;;;;5053419;28;20196;-74
2023/09/12 05:40:19;;;;;;;7.35;1.73;;;18.20;99.90;;;;;;5071677;28;20205;-74
2023/09/12 05:42:44;;;;;;;3.03;2.38;;;18.20;99.90;;;;;;5072312;28;20212;-74
2023/09/12 05:45:10;;;;;;;1.73;1.60;;;18.20;99.90;;;;;;5071769;28;20640;-74
2023/09/12 05:47:36;;;;;;;3.13;1.20;;;18.30;99.90;;;;;;5069000;28;20649;-74
2023/09/12 05:50:05;;;;;;;1.55;1.45;;;18.20;99.90;;;;;;5051624;28;20189;-74
2023/09/12 05:52:31;;;;;;;1.77;1.48;;;18.30;99.90;;;;;;5051704;28;20655;-74
2023/09/12 05:54:56;;;;;;;2.17;1.92;;;18.40;99.90;;;;;;5051654;28;20288;-74
2023/09/12 05:57:22;;;;;;;2.65;1.75;;;18.40;99.90;;;;;;5051420;28;20331;-74
2023/09/12 05:59:48;;;;;;;3.15;1.52;;;18.40;99.90;;;;;;5051648;28;20554;-74
2023/09/12 06:02:13;;;;;;;1.70;1.48;;;18.50;99.90;;;;;;5051715;28;20480;-74
2023/09/12 06:04:39;;;;;;;0.98;0.98;;;18.60;99.90;;;;;;5055338;28;20232;-74
2023/09/12 06:07:08;;;;;;;0.75;0.75;;;18.60;99.90;;;;;;5055381;28;20267;-74
2023/09/12 06:09:33;;;;;;;0.73;0.73;;;18.60;99.90;;;;;;5055211;28;20193;-74
2023/09/12 06:11:59;;;;;;;1.65;1.55;;;18.60;99.90;;;;;;5055297;28;20598;-76
2023/09/12 06:14:24;;;;;;;2.03;1.67;;;18.70;99.90;;;;;;5055292;28;20193;-75
2023/09/12 06:16:50;;;;;;;0.98;0.98;;;18.70;99.90;;;;;;5055368;28;20250;-75
2023/09/12 06:19:16;;;;;;;0.80;0.80;;;18.80;99.90;;;;;;5056907;28;20203;-76
2023/09/12 06:21:44;;;;;;;1.95;1.60;;;18.80;99.90;;;;;;5075254;28;20208;-76
2023/09/12 06:24:13;;;;;;;3.53;2.33;;;18.90;99.90;;;;;;5075141;28;20193;-76
2023/09/12 06:26:39;;;;;;;2.50;1.95;;;18.90;99.90;;;;;;5075071;28;20842;-77
2023/09/12 06:29:05;;;;;;;2.67;1.17;;;19.00;99.90;;;;;;5074658;28;20713;-77
2023/09/12 06:31:31;;;;;;;1.55;1.45;;;19.00;99.90;;;;;;5074906;28;20288;-76
2023/09/12 06:33:57;;;;;;;6.15;1.85;;;19.00;99.90;;;;;;5074440;28;20223;-76
2023/09/12 06:36:29;;;;;;;1.00;1.00;;;19.00;99.90;;;;;;5074706;28;20656;-76
2023/09/12 06:38:58;;;;;;;1.33;1.00;;;19.00;99.90;;;;;;5057044;28;20197;-76
2023/09/12 06:41:24;;;;;;;1.88;1.25;;;19.00;99.90;;;;;;5074603;28;20193;-70
2023/09/12 06:43:50;;;;;;;1.73;1.63;;;18.90;99.90;;;;;;5074847;28;20698;-74
2023/09/12 06:46:19;;;;;;;0.98;0.98;;;18.90;99.90;;;;;;5056600;28;20225;-74
2023/09/12 06:48:45;;;;;;;1.05;1.00;;;19.00;99.90;;;;;;5074343;28;20201;-72
2023/09/12 06:51:11;;;;;;;3.88;2.10;;;19.00;99.90;;;;;;5074502;28;20193;-70
2023/09/12 06:53:37;;;;;;;1.67;1.58;;;19.00;99.90;;;;;;5074452;28;20200;-71
2023/09/12 06:56:05;;;;;;;2.22;1.67;;;19.00;99.90;;;;;;5074448;28;20197;-70
2023/09/12 06:58:32;;;;;;;2.25;1.48;;;19.00;99.90;;;;;;5074295;28;20235;-70
2023/09/12 07:01:04;;;;;;;1.08;1.08;;;19.00;99.90;;;;;;5074350;28;20690;-71
2023/09/12 07:03:30;;;;;;;2.15;1.80;;;19.00;99.90;;;;;;5073978;28;20739;-70
2023/09/12 07:05:57;;;;;;;0.90;0.90;;;19.00;99.90;;;;;;5074183;28;20193;-71
2023/09/12 07:08:22;;;;;;;1.75;1.05;;;19.10;99.90;;;;;;5074022;28;20279;-71
2023/09/12 07:10:49;;;;;;;1.83;1.63;;;19.00;99.90;;;;;;5074428;28;20216;-70
2023/09/12 07:13:15;;;;;;;1.17;0.98;;;19.00;99.90;;;;;;5055927;28;20215;-70
2023/09/12 07:15:41;;;;;;;1.70;1.55;;;19.00;99.90;;;;;;5074066;28;20192;-71
2023/09/12 07:18:09;;;;;;;1.35;1.25;;;19.10;99.90;;;;;;5073975;28;20196;-70
2023/09/12 07:20:35;;;;;;;0.70;0.60;;;19.10;99.90;;;;;;5073759;28;20189;-70
2023/09/12 07:23:03;;;;;;;0.93;0.90;;;19.20;99.90;;;;;;5074053;28;20227;-76
2023/09/12 07:25:29;;;;;;;1.08;0.70;;;19.20;99.90;;;;;;5073662;28;20539;-76
2023/09/12 07:27:54;;;;;;;2.00;1.30;;;19.30;99.90;;;;;;5073741;28;20242;-76
2023/09/12 07:30:20;;;;;;;3.78;1.23;;;19.40;99.90;;;;;;5073058;28;20213;-76
2023/09/12 07:32:45;;;;;;;0.88;0.88;;;19.40;99.90;;;;;;5073822;28;20203;-76
2023/09/12 07:35:11;;;;;;;1.55;1.30;;;19.40;99.90;;;;;;5073542;28;20269;-76
2023/09/12 07:37:37;;;;;;;1.00;0.95;;;19.40;99.90;;;;;;5055711;28;20197;-77
2023/09/12 07:40:09;;;;;;;1.33;1.10;;;19.40;99.90;;;;;;5055732;28;20196;-76
2023/09/12 07:42:35;;;;;;;0.52;0.52;;;19.40;99.90;;;;;;5073390;28;20204;-76
2023/09/12 07:45:03;;;;;;;1.40;1.13;;;19.40;99.90;;;;;;5073218;28;20204;-76
2023/09/12 07:47:31;;;;;;;3.33;1.38;;;19.50;99.90;;;;;;5073254;28;20200;-77
2023/09/12 07:49:57;;;;;;;0.70;0.70;;;19.60;99.90;;;;;;5055141;28;20204;-76
2023/09/12 07:52:22;;;;;;;1.60;1.42;;;19.60;99.90;;;;;;5073338;28;20197;-75
2023/09/12 07:54:50;;;;;;;0.80;0.80;;;19.70;99.90;;;;;;5073433;28;20276;-75
2023/09/12 07:57:15;;;;;;;0.60;0.60;;;19.80;99.90;;;;;;5073128;28;20193;-75
2023/09/12 07:59:41;;;;;;;0.70;0.70;;;19.70;99.90;;;;;;5073094;28;20203;-75
2023/09/12 08:02:07;;;;;;;0.50;0.50;;;19.70;99.90;;;;;;5073057;28;20205;-75
2023/09/12 08:04:34;;;;;;;1.75;1.38;;;19.80;99.90;;;;;;5072826;28;20687;-75
2023/09/12 08:07:00;;;;;;;2.45;1.35;;;19.90;99.90;;;;;;5055094;28;20193;-75
2023/09/12 08:09:50;;;;;;;0.88;0.82;;;20.10;99.90;;;;;;5073222;28;20188;-75
2023/09/12 08:12:16;;;;;;;0.68;0.68;;;20.20;99.90;;;;;;5072624;28;20191;-75
2023/09/12 08:14:42;;;;;;;0.38;0.38;;;20.40;99.90;;;;;;5072823;28;20193;-75
2023/09/12 08:17:08;;;;;;;4.38;1.10;;;20.70;99.90;;;;;;5072809;28;20664;-75
2023/09/12 08:19:34;;;;;;;0.60;0.60;;;21.20;99.90;;;;;;5072726;28;20201;-75
2023/09/12 08:22:00;;;;;;;0.63;0.63;;;21.60;99.90;;;;;;5073092;28;20602;-75
2023/09/12 08:24:25;;;;;;;1.45;0.73;;;21.70;99.90;;;;;;5072144;28;20204;-74
2023/09/12 08:26:51;;;;;;;0.70;0.70;;;21.70;99.90;;;;;;5072185;28;20208;-75
2023/09/12 08:29:17;;;;;;;0.60;0.60;;;21.70;99.90;;;;;;5072398;28;20211;-74
2023/09/12 08:31:42;;;;;;;1.27;1.17;;;21.70;99.90;;;;;;5072556;28;20189;-75
2023/09/12 08:34:08;;;;;;;1.05;0.63;;;21.60;99.90;;;;;;5072536;28;20303;-75
2023/09/12 08:36:35;;;;;;;0.65;0.65;;;21.60;99.90;;;;;;5054379;28;20219;-75
2023/09/12 08:39:01;;;;;;;0.30;0.30;;;21.70;99.90;;;;;;5072666;28;20563;-75
2023/09/12 08:41:27;;;;;;;3.88;0.93;;;21.70;99.90;;;;;;5072110;28;20208;-75
2023/09/12 08:43:54;;;;;;;0.50;0.50;;;21.80;99.90;;;;;;5054525;28;20200;-75
2023/09/12 08:46:21;;;;;;;1.17;0.85;;;21.90;99.90;;;;;;5072273;28;20660;-74
2023/09/12 08:48:49;;;;;;;0.75;0.50;;;22.10;99.90;;;;;;5072457;28;20239;-75
2023/09/12 08:51:14;;;;;;;0.65;0.30;;;22.10;99.90;;;;;;5072554;28;20189;-75
2023/09/12 08:53:40;;;;;;;1.38;1.27;;;22.00;99.90;;;;;;5072271;28;20552;-75
2023/09/12 08:56:07;;;;;;;0.43;0.43;;;21.70;99.90;;;;;;5072443;28;20188;-74
2023/09/12 08:58:34;;;;;;;0.50;0.50;;;21.40;99.90;;;;;;5072254;28;20244;-75
2023/09/12 09:01:00;;;;;;;0.35;0.35;;;21.30;99.90;;;;;;5072409;28;20193;-74
2023/09/12 09:03:26;;;;;;;0.30;0.30;;;21.10;99.90;;;;;;5072174;28;20655;-73
2023/09/12 09:05:55;;;;;;;0.30;0.30;;;21.00;99.90;;;;;;5072200;28;20193;-72
2023/09/12 09:08:23;;;;;;;0.55;0.55;;;21.00;99.90;;;;;;5071966;28;20326;-73
2023/09/12 09:10:56;;;;;;;5.38;1.08;;;21.10;99.90;;;;;;5072154;28;20215;-73
2023/09/12 09:13:22;;;;;;;9.07;0.95;;;21.20;99.90;;;;;;5053891;28;20238;-73
2023/09/12 09:15:48;;;;;;;0.77;0.50;;;21.30;99.90;;;;;;5072037;28;20663;-73
2023/09/12 09:18:13;;;;;;;1.40;0.70;;;21.30;99.90;;;;;;5072257;28;20197;-72
2023/09/12 09:20:45;;;;;;;0.38;0.38;;;21.30;99.90;;;;;;5053545;28;20204;-72
2023/09/12 09:23:13;;;;;;;0.93;0.55;;;21.10;99.90;;;;;;5072019;28;20216;-72
2023/09/12 09:25:42;;;;;;;0.40;0.40;;;20.90;99.90;;;;;;5071910;28;20319;-72
2023/09/12 09:28:21;;;;;;;0.35;0.35;;;20.80;99.90;;;;;;5071649;28;20193;-72
2023/09/12 09:30:48;;;;;;;2.05;0.90;;;20.70;99.90;;;;;;5071940;28;20196;-72
2023/09/12 09:33:14;;;;;;;1.23;0.57;;;20.70;99.90;;;;;;5071999;28;20591;-73
2023/09/12 09:35:48;;;;;;;0.30;0.30;;;20.80;99.90;;;;;;5071573;28;20193;-72
2023/09/12 09:38:16;;;;;;;1.48;0.75;;;21.10;99.90;;;;;;5075398;28;20189;-72
2023/09/12 09:40:43;;;;;;;0.55;0.55;;;21.40;99.90;;;;;;5075762;28;20267;-72
2023/09/12 09:43:08;;;;;;;0.65;0.63;;;21.60;99.90;;;;;;5075686;28;20380;-70
2023/09/12 09:45:44;;;;;;;1.00;0.60;;;21.60;99.90;;;;;;5075921;28;20266;-70
2023/09/12 09:48:17;;;;;;;0.22;0.22;;;21.50;99.90;;;;;;5075753;28;20540;-72
2023/09/12 09:50:43;;;;;;;0.22;0.22;;;21.70;99.90;;;;;;5075838;28;20553;-69
2023/09/12 09:53:11;;;;;;;0.20;0.20;;;21.60;99.90;;;;;;5075681;28;20200;-72
2023/09/12 09:55:37;;;;;;;0.28;0.28;;;21.60;99.90;;;;;;5075626;28;20200;-71
2023/09/12 09:58:06;;;;;;;0.32;0.32;;;21.90;99.90;;;;;;5075861;28;20239;-70
2023/09/12 10:00:36;;;;;;;0.52;0.52;;;22.10;99.90;;;;;;5075376;28;20656;-69
2023/09/12 10:03:05;;;;;;;0.40;0.40;;;22.60;99.90;;;;;;5075367;28;20236;-70
2023/09/12 10:05:37;;;;;;;0.40;0.40;;;22.70;99.90;;;;;;5075015;28;20745;-74
2023/09/12 10:08:09;;;;;;;0.55;0.55;;;22.90;99.90;;;;;;5075320;28;20192;-74
2023/09/12 10:10:39;;;;;;;0.30;0.30;;;22.90;99.90;;;;;;5075218;28;20196;-75
2023/09/12 10:13:06;;;;;;;0.50;0.50;;;22.70;99.90;;;;;;5075164;28;20193;-75
2023/09/12 10:15:34;;;;;;;0.38;0.38;;;22.70;99.90;;;;;;5075067;28;20195;-75
2023/09/12 10:18:04;;;;;;;0.30;0.30;;;22.60;99.90;;;;;;5057123;28;20212;-74
2023/09/12 10:20:52;;;;;;;0.40;0.40;;;22.50;99.90;;;;;;5057225;28;20227;-76
2023/09/12 10:23:30;;;;;;;0.30;0.30;;;23.00;99.90;;;;;;5075041;28;20197;-75
2023/09/12 10:25:58;;;;;;;0.40;0.40;;;23.10;99.90;;;;;;5074915;28;20185;-75
2023/09/12 10:28:25;;;;;;;0.35;0.35;;;22.90;99.90;;;;;;5074619;28;20553;-76
2023/09/12 10:30:52;;;;;;;0.57;0.57;;;22.80;99.90;;;;;;5075039;28;20180;-75
2023/09/12 10:33:18;;;;;;;1.00;0.90;;;22.60;99.90;;;;;;5056925;28;20192;-75
2023/09/12 10:35:46;;;;;;;0.20;0.20;;;22.60;99.90;;;;;;5058029;28;20199;-76
2023/09/12 10:38:16;;;;;;;0.32;0.32;;;22.50;99.90;;;;;;5095247;28;20188;-75
2023/09/12 10:40:45;;;;;;;0.40;0.40;;;22.30;99.90;;;;;;5095148;28;20556;-74
2023/09/12 10:43:14;;;;;;;0.20;0.20;;;22.10;99.90;;;;;;5095042;28;20200;-75
2023/09/12 10:45:41;;;;;;;0.50;0.50;;;22.20;99.90;;;;;;5095046;28;20196;-74
2023/09/12 10:48:10;;;;;;;0.82;0.45;;;22.20;99.90;;;;;;5094013;28;20188;-75
2023/09/12 10:50:35;;;;;;;1.35;0.73;;;22.20;99.90;;;;;;5094761;28;20195;-76
2023/09/12 10:53:15;;;;;;;0.13;0.13;;;22.30;99.90;;;;;;5076804;28;20204;-77
2023/09/12 10:56:00;;;;;;;0.50;0.50;;;22.30;99.90;;;;;;5094703;28;20565;-77
2023/09/12 10:58:26;;;;;;;0.20;0.20;;;22.10;99.90;;;;;;5094622;28;20188;-76
2023/09/12 11:01:27;;;;;;;0.32;0.32;;;21.90;99.90;;;;;;5076599;28;20196;-76
2023/09/12 11:03:53;;;;;;;0.30;0.30;;;21.90;99.90;;;;;;5078546;28;20734;-76
2023/09/12 11:06:22;;;;;;;0.20;0.20;;;22.00;99.90;;;;;;5056134;28;20764;-76
2023/09/12 11:09:13;;;;;;;0.30;0.30;;;22.10;99.90;;;;;;5056188;28;20225;-77
2023/09/12 11:11:39;;;;;;;2.15;0.25;;;22.10;99.90;;;;;;5074111;28;20827;-77
2023/09/12 11:14:06;;;;;;;1.13;0.80;;;22.10;99.90;;;;;;5055998;28;20205;-77
2023/09/12 11:16:32;;;;;;;0.20;0.20;;;22.30;99.90;;;;;;5074116;28;20228;-74
2023/09/12 11:19:16;;;;;;;0.30;0.30;;;22.40;99.90;;;;;;5074055;28;20192;-75
2023/09/12 11:21:47;;;;;;;0.20;0.20;;;22.60;99.90;;;;;;5074114;28;20629;-75
2023/09/12 11:24:15;;;;;;;0.30;0.30;;;22.80;99.90;;;;;;5056022;28;20267;-74
2023/09/12 11:27:04;;;;;;;0.35;0.30;;;23.00;99.90;;;;;;5073860;28;20598;-74
2023/09/12 11:29:41;;;;;;;0.10;0.10;;;23.50;99.90;;;;;;5055425;28;20603;-74
2023/09/12 11:32:07;;;;;;;0.25;0.20;;;23.90;99.90;;;;;;5073761;28;20254;-74
2023/09/12 11:34:40;;;;;;;0.38;0.30;;;24.00;99.90;;;;;;5055547;28;20280;-74
2023/09/12 11:37:06;;;;;;;0.35;0.35;;;24.30;99.90;;;;;;5073812;28;20575;-74
2023/09/12 11:39:36;;;;;;;0.30;0.30;;;24.50;99.90;;;;;;5055583;28;20197;-74
2023/09/12 11:42:04;;;;;;;0.57;0.50;;;24.70;99.90;;;;;;5073524;28;20732;-74
2023/09/12 11:44:31;;;;;;;0.10;0.10;;;24.70;99.90;;;;;;5073238;28;20204;-73
2023/09/12 11:47:05;;;;;;;0.30;0.30;;;24.70;99.90;;;;;;5073546;28;20277;-75
2023/09/12 11:49:38;;;;;;;0.43;0.43;;;24.80;99.90;;;;;;5073287;28;20268;-75
2023/09/12 11:52:09;;;;;;;0.20;0.20;;;24.50;99.90;;;;;;5073455;28;20571;-74
2023/09/12 11:54:34;;;;;;;0.40;0.40;;;24.50;99.90;;;;;;5073275;28;20189;-73
2023/09/12 11:57:02;;;;;;;1.13;0.32;;;24.70;99.90;;;;;;5073529;28;20199;-73
2023/09/12 11:59:30;;;;;;;0.43;0.43;;;24.00;99.90;;;;;;5073147;28;20188;-73
2023/09/12 12:01:56;;;;;;;0.20;0.20;;;23.70;99.90;;;;;;5072652;28;20208;-76
2023/09/12 12:04:24;;;;;;;0.20;0.20;;;24.10;99.90;;;;;;5072844;28;20742;-76
2023/09/12 12:06:51;;;;;;;0.30;0.30;;;24.10;99.90;;;;;;5055368;28;20538;-76
2023/09/12 12:09:19;;;;;;;0.43;0.30;;;23.80;99.90;;;;;;5054177;28;20274;-75
2023/09/12 12:11:46;;;;;;;15.02;2.17;;;24.10;99.90;;;;;;5052182;28;20207;-77
2023/09/12 12:14:15;;;;;;;2.28;1.17;;;23.90;99.90;;;;;;5035463;28;20243;-76
2023/09/12 12:16:42;;;;;;;0.43;0.43;;;24.00;99.90;;;;;;5052750;28;20198;-76
2023/09/12 12:19:09;;;;;;;0.20;0.20;;;24.10;99.90;;;;;;5052977;28;20660;-76
2023/09/12 12:21:35;;;;;;;0.20;0.20;;;24.10;99.90;;;;;;5034777;28;20220;-77
2023/09/12 12:24:02;;;;;;;0.35;0.35;;;24.40;99.90;;;;;;5052725;28;20555;-76
2023/09/12 12:26:30;;;;;;;0.75;0.75;;;24.50;99.90;;;;;;5034710;28;20615;-77
2023/09/12 12:28:56;;;;;;;0.60;0.60;;;24.50;99.90;;;;;;5042274;28;20648;-76
2023/09/12 12:31:24;;;;;;;0.30;0.30;;;24.40;99.90;;;;;;5054655;28;20193;-76
2023/09/12 12:33:53;;;;;;;0.80;0.38;;;24.30;99.90;;;;;;5054975;28;20704;-76
2023/09/12 12:39:14;;;;;;;0.13;0.13;;;24.40;99.90;;;;;;5073866;28;20204;-79
2023/09/12 12:41:42;;;;;;;0.15;0.15;;;24.60;99.90;;;;;;5054446;28;20685;-76
2023/09/12 12:44:52;;;;;;;0.20;0.20;;;24.70;99.90;;;;;;5055055;28;20262;-78
2023/09/12 12:47:22;;;;;;;0.20;0.20;;;24.10;99.90;;;;;;5007225;28;20227;-79
2023/09/12 12:49:52;;;;;;;0.20;0.20;;;23.80;99.90;;;;;;5055893;28;20232;-79
2023/09/12 12:52:25;;;;;;;0.20;0.20;;;23.80;99.90;;;;;;5056539;28;20608;-77